createdAt,value
2023-02-02T17:41:50.230Z,18.10
2023-02-02T17:44:16.838Z,17.87
2023-02-02T17:46:43.459Z,18.07
2023-02-02T17:49:10.106Z,17.80
2023-02-02T17:51:41.214Z,19.53
2023-02-02T17:54:12.867Z,18.23
2023-02-02T17:56:40.327Z,18.50
2023-02-02T17:59:07.087Z,18.80
2023-02-02T18:01:39.130Z,19.10
2023-02-02T18:04:08.319Z,18.83
2023-02-02T18:06:34.951Z,19.30
2023-02-02T18:09:01.760Z,19.33
2023-02-02T18:11:28.388Z,17.60
2023-02-02T18:13:55.166Z,18.50
2023-02-02T18:16:22.604Z,20.33
2023-02-02T18:18:49.646Z,18.10
2023-02-02T18:21:16.502Z,19.43
2023-02-02T18:23:43.302Z,17.80
2023-02-02T18:26:19.692Z,17.57
2023-02-02T18:28:50.080Z,17.23
2023-02-02T18:31:19.577Z,15.50
2023-02-02T18:33:47.653Z,17.33
2023-02-02T18:36:17.735Z,15.40
2023-02-02T18:38:48.264Z,14.37
2023-02-02T18:41:16.653Z,13.97
2023-02-02T18:43:44.661Z,13.17
2023-02-02T18:46:13.911Z,12.83
2023-02-02T18:48:41.696Z,13.80
2023-02-02T18:51:17.991Z,13.40
2023-02-02T18:53:46.357Z,12.83
2023-02-02T18:56:14.643Z,12.60
2023-02-02T18:58:41.913Z,12.57
2023-02-02T19:01:17.409Z,11.43
2023-02-02T19:03:51.776Z,12.20
2023-02-02T19:06:38.868Z,11.53
2023-02-02T19:09:06.638Z,13.33
2023-02-02T19:11:48.237Z,11.97
2023-02-02T19:14:33.282Z,12.03
2023-02-02T19:17:17.994Z,12.40
2023-02-02T19:19:44.730Z,14.97
2023-02-02T19:22:22.845Z,13.57
2023-02-02T19:24:52.375Z,14.93
2023-02-02T19:27:26.573Z,14.87
2023-02-02T19:29:59.785Z,14.47
2023-02-02T19:32:30.960Z,16.20
2023-02-02T19:35:01.408Z,17.20
2023-02-02T19:37:31.028Z,17.90
2023-02-02T19:40:15.790Z,16.73
2023-02-02T19:43:24.722Z,18.53
2023-02-02T19:45:52.059Z,20.33
2023-02-02T19:48:22.517Z,20.10
2023-02-02T19:50:49.439Z,22.67
2023-02-02T19:53:38.439Z,23.93
2023-02-02T19:56:34.874Z,23.57
2023-02-02T19:59:01.775Z,24.40
2023-02-02T20:01:33.695Z,26.13
2023-02-02T20:04:04.066Z,24.43
2023-02-02T20:06:32.359Z,24.70
2023-02-02T20:09:00.898Z,27.37
2023-02-02T20:11:36.652Z,26.07
2023-02-02T20:14:28.723Z,25.33
2023-02-02T20:17:14.915Z,26.90
2023-02-02T20:19:44.518Z,27.97
2023-02-02T20:22:30.325Z,25.70
2023-02-02T20:24:57.741Z,24.60
2023-02-02T20:27:27.393Z,24.67
2023-02-02T20:30:01.309Z,26.43
2023-02-02T20:32:30.210Z,25.63
2023-02-02T20:34:58.526Z,26.27
2023-02-02T20:37:36.363Z,26.77
2023-02-02T20:40:07.697Z,27.50
2023-02-02T20:42:34.493Z,24.93
2023-02-02T20:45:01.177Z,25.57
2023-02-02T20:47:28.087Z,26.83
2023-02-02T20:49:57.324Z,26.93
2023-02-02T20:52:24.137Z,25.00
2023-02-02T20:54:52.191Z,23.83
2023-02-02T20:57:19.174Z,24.87
2023-02-02T20:59:46.124Z,23.90
2023-02-02T21:02:18.880Z,26.30
2023-02-02T21:04:47.594Z,25.97
2023-02-02T21:07:16.992Z,23.90
2023-02-02T21:09:44.927Z,24.00
2023-02-02T21:12:12.428Z,24.93
2023-02-02T21:14:39.308Z,25.83
2023-02-02T21:17:14.777Z,24.93
2023-02-02T21:19:43.382Z,24.17
2023-02-02T21:22:10.504Z,25.63
2023-02-02T21:24:37.249Z,25.60
2023-02-02T21:27:04.645Z,26.53
2023-02-02T21:29:32.637Z,25.00
2023-02-02T21:32:02.127Z,24.97
2023-02-02T21:34:30.070Z,25.97
2023-02-02T21:36:58.036Z,23.40
2023-02-02T21:39:37.660Z,22.63
2023-02-02T21:42:18.815Z,23.07
2023-02-02T21:44:49.587Z,21.60
2023-02-02T21:47:26.866Z,23.03
2023-02-02T21:49:56.903Z,22.77
2023-02-02T21:52:25.517Z,21.93
2023-02-02T21:54:52.212Z,21.23
2023-02-02T21:57:21.958Z,20.90
2023-02-02T21:59:56.769Z,22.42
2023-02-02T22:02:42.585Z,22.33
2023-02-02T22:05:22.333Z,19.63
2023-02-02T22:07:50.800Z,20.40
2023-02-02T22:10:38.298Z,21.33
2023-02-02T22:13:21.530Z,20.20
2023-02-02T22:15:51.621Z,20.87
2023-02-02T22:18:21.821Z,21.33
2023-02-02T22:20:50.625Z,20.77
2023-02-02T22:23:23.135Z,20.03
2023-02-02T22:25:53.057Z,20.40
2023-02-02T22:28:27.972Z,20.17
2023-02-02T22:30:56.343Z,21.97
2023-02-02T22:33:26.382Z,24.20
2023-02-02T22:35:56.438Z,21.67
2023-02-02T22:38:24.837Z,21.43
2023-02-02T22:40:52.741Z,21.70
2023-02-02T22:43:20.823Z,20.70
2023-02-02T22:45:48.239Z,22.10
2023-02-02T22:48:16.024Z,22.73
2023-02-02T22:50:42.900Z,21.23
2023-02-02T22:53:09.636Z,21.77
